Home   Weather   USA   Lexington   Past weeks
Flag for USA

Past Weather in Lexington, North Carolina, USA — Yesterday and Last 2 Weeks

Currently: 77 °F. Mostly cloudy. (Weather station: Davidson County Airport, USA). See more current weather

Past Weather in Lexington — Graph

°F

Lexington Temperature Yesterday

Maximum temperature yesterday: 90 °F (at 3:15 pm)
Minimum temperature yesterday: 72 °F (at 6:15 am)
Average temperature yesterday: 80 °F

High & Low Weather Summary for the Past Weeks

 TemperatureHumidityPressure
High92 °F (Jul 29, 3:55 pm)100% (Jul 27, 9:15 pm)30.29 "Hg (Jul 27, 9:15 pm)
Low69 °F (Aug 3, 6:35 am)48% (Aug 3, 4:15 pm)29.94 "Hg (Jul 28, 6:35 pm)
Average79 °F84%30.10 "Hg
* Reported Jul 27 9:15 pm — Aug 11 9:35 pm, Lexington. Weather by CustomWeather, © 2022

Note: Actual official high and low records may vary slightly from our data, if they occured in-between our weather recording intervals... More about our weather records

Lexington Weather History for the Previous 24 Hours

Scroll right to see more
 ConditionsComfort  
Time TempWeatherWind HumidityBarometerVisibility
9:35 pm
Thu, Aug 11
78 °FOvercast.5 mph83%30.02 "Hg10 mi
9:15 pm77 °FOvercast.6 mph84%30.01 "Hg10 mi
8:55 pm77 °FPassing clouds.No wind82%30.00 "Hg10 mi
7:35 pm79 °FSunny.5 mph73%29.99 "Hg10 mi
7:15 pm80 °FSunny.7 mph70%29.99 "Hg10 mi
6:55 pm80 °FScattered clouds.6 mph70%29.98 "Hg10 mi
6:35 pm82 °FScattered clouds.9 mph67%29.98 "Hg10 mi
5:35 pm82 °FSunny.5 mph67%29.98 "Hg10 mi
5:15 pm83 °FSunny.8 mph65%29.98 "Hg10 mi
4:55 pm83 °FSunny.9 mph64%29.99 "Hg10 mi
4:35 pm84 °FSunny.9 mph67%29.99 "Hg10 mi
4:15 pm86 °FScattered clouds.9 mph62%29.99 "Hg10 mi
3:35 pm84 °FBroken clouds.6 mph64%30.00 "Hg10 mi
3:15 pm82 °FBroken clouds.No wind66%30.01 "Hg10 mi
2:35 pm84 °FScattered clouds.7 mph65%30.03 "Hg10 mi
2:15 pm83 °FScattered clouds.3 mph66%30.04 "Hg10 mi
1:55 pm83 °FSunny.5 mph68%30.05 "Hg10 mi
1:35 pm82 °FSunny.6 mph72%30.05 "Hg10 mi
1:15 pm81 °FSunny.5 mph71%30.06 "Hg10 mi
12:55 pm81 °FSunny.3 mph70%30.06 "Hg10 mi
12:35 pm82 °FSunny.7 mph70%30.07 "Hg10 mi
12:15 pm80 °FSunny.5 mph72%30.07 "Hg10 mi
11:55 am79 °FScattered clouds.No wind74%30.08 "Hg10 mi
11:35 am79 °FSunny.5 mph75%30.08 "Hg10 mi
11:15 am80 °FSunny.5 mph74%30.08 "Hg10 mi
10:55 am80 °FSunny.3 mph72%30.08 "Hg10 mi
10:35 am79 °FSunny.3 mph74%30.07 "Hg10 mi
9:15 am76 °FSunny.5 mph94%30.07 "Hg10 mi
8:55 am75 °FSunny.5 mph99%30.07 "Hg10 mi
8:35 am75 °FSunny.No wind100%30.07 "Hg10 mi
8:15 am74 °FSunny.6 mph100%30.06 "Hg10 mi
7:55 am74 °FSunny.5 mph100%30.07 "Hg10 mi
7:15 am72 °FSunny.5 mph100%30.06 "Hg10 mi
6:55 am72 °FSunny.5 mph100%30.06 "Hg10 mi
6:35 am72 °FPassing clouds.3 mph100%30.06 "Hg10 mi
6:15 am72 °FPassing clouds.5 mph100%30.06 "Hg10 mi
5:55 am72 °FPassing clouds.3 mph100%30.05 "Hg10 mi
5:35 am72 °FPassing clouds.3 mph100%30.06 "Hg10 mi
5:15 am72 °FClear.7 mph100%30.06 "Hg10 mi
4:55 am72 °FClear.3 mph100%30.05 "Hg10 mi
4:35 am72 °FClear.No wind100%30.05 "Hg10 mi
3:55 am73 °FClear.No wind100%30.05 "Hg10 mi
3:35 am73 °FClear.No wind100%30.06 "Hg10 mi
3:15 am74 °FClear.No wind100%30.07 "Hg10 mi
2:15 am74 °FPassing clouds.No wind100%30.10 "Hg10 mi
1:55 am74 °FClear.No wind100%30.11 "Hg10 mi
1:15 am74 °FClear.No wind100%30.11 "Hg10 mi
12:35 am75 °FPassing clouds.No wind100%30.11 "Hg10 mi
12:15 am74 °FPassing clouds.No wind100%30.11 "Hg10 mi
11:55 pm
Wed, Aug 10
75 °FClear.No wind98%30.12 "Hg10 mi
11:15 pm75 °FClear.3 mph93%30.11 "Hg10 mi
Weather by CustomWeather, © 2022

See weather overview